LFBC weather

Cazaux (BA 120) Air Base
Cazaux (La Teste-de-Buch), Nouvelle-Aquitaine, France

Public forecast

Using degrees Celsius for public forecast. Weather courtesy of forecast.io.

Current aviation weather report (METAR) for Cazaux (BA 120) Air Base

Retrieved 2020/02/23 11:30 UTC (24 minutes ago):

LFBC 231130Z AUTO 20007KT 170V230 9999 FEW018 13/09 Q1034

Aviation forecast (TAF) for Cazaux (BA 120) Air Base

Forecast is more than 12 hours old.

Retrieved 2020/02/21 15:42 UTC (2 days ago):

TAF TAF LFBC 211400Z 2115/2215 CNL